Time;durP1;ratioP1;P1;durP2;ratioP2;P2;SDS_P1;SDS_P2;PMS_P1;PMS_P2;Temp;Humidity;BMP_temperature;BMP_pressure;BME280_temperature;BME280_humidity;BME280_pressure;Samples;Min_cycle;Max_cycle;Signal;HPM_P1;HPM_P2
2021/01/08 00:00:28;;;;;;;;;;;;;;;5.94;63.35;99699.31;4974761;28;19962;-83
2021/01/08 00:02:55;;;;;;;;;;;;;;;5.79;63.91;99692.22;4950294;28;19921;-83
2021/01/08 00:05:23;;;;;;;;;;;;;;;5.84;63.52;99698.31;4968476;28;19921;-84
2021/01/08 00:07:50;;;;;;;;;;;;;;;6.16;62.89;99693.50;4960705;28;19948;-84
2021/01/08 00:10:16;;;;;;;;;;;;;;;6.69;61.38;99698.31;4948627;28;20320;-82
2021/01/08 00:12:42;;;;;;;;;;;;;;;6.49;61.89;99686.03;4967029;28;19979;-84
2021/01/08 00:15:09;;;;;;;;;;;;;;;6.40;62.25;99690.28;4943000;28;20383;-83
2021/01/08 00:17:35;;;;;;;;;;;;;;;6.42;61.97;99686.84;4983021;28;20021;-83
2021/01/08 00:20:03;;;;;;;;;;;;;;;6.53;62.15;99682.59;4969662;28;19922;-83
2021/01/08 00:22:29;;;;;;;;;;;;;;;5.90;63.55;99688.03;4962913;28;19936;-83
2021/01/08 00:24:55;;;;;;;;;;;;;;;6.39;62.33;99680.75;4960732;28;20217;-82
2021/01/08 00:27:25;;;;;;;;;;;;;;;6.37;62.45;99677.28;4965339;28;20032;-81
2021/01/08 00:29:52;;;;;;;;;;;;;;;6.53;62.61;99685.19;4967696;28;20431;-84
2021/01/08 00:32:19;;;;;;;;;;;;;;;6.55;62.05;99688.69;4959864;28;20396;-83
2021/01/08 00:34:47;;;;;;;;;;;;;;;6.57;62.14;99683.47;4963185;28;20040;-84
2021/01/08 00:37:14;;;;;;;;;;;;;;;5.99;64.26;99687.28;4952045;28;19968;-85
2021/01/08 00:39:41;;;;;;;;;;;;;;;5.68;65.44;99686.88;4975071;28;19921;-85
2021/01/08 00:42:08;;;;;;;;;;;;;;;6.07;63.88;99683.91;4968076;28;19922;-85
2021/01/08 00:44:34;;;;;;;;;;;;;;;6.28;63.92;99683.25;4967217;28;19937;-83
2021/01/08 00:47:01;;;;;;;;;;;;;;;6.08;64.69;99683.06;4971583;28;19926;-83
2021/01/08 00:49:28;;;;;;;;;;;;;;;6.23;64.26;99681.47;4958009;28;20029;-84
2021/01/08 00:51:54;;;;;;;;;;;;;;;6.24;64.59;99678.00;4974253;28;19930;-83
2021/01/08 00:54:21;;;;;;;;;;;;;;;6.53;63.13;99680.00;4983278;28;19921;-82
2021/01/08 00:56:47;;;;;;;;;;;;;;;6.10;64.57;99678.75;4985814;28;19933;-83
2021/01/08 00:59:16;;;;;;;;;;;;;;;6.17;64.48;99671.03;4992276;28;20291;-83
2021/01/08 01:01:46;;;;;;;;;;;;;;;6.56;63.46;99676.59;4961919;28;19929;-83
2021/01/08 01:04:12;;;;;;;;;;;;;;;6.01;64.86;99673.47;4970838;28;19929;-84
2021/01/08 01:06:40;;;;;;;;;;;;;;;6.18;64.41;99680.56;4978083;28;19932;-84
2021/01/08 01:09:07;;;;;;;;;;;;;;;5.94;65.71;99682.03;4967025;28;19921;-84
2021/01/08 01:11:33;;;;;;;;;;;;;;;5.58;66.77;99681.56;4979040;28;19961;-82
2021/01/08 01:14:03;;;;;;;;;;;;;;;6.43;64.24;99687.69;4986773;28;20395;-84
2021/01/08 01:16:30;;;;;;;;;;;;;;;5.94;66.35;99684.63;4971280;28;19922;-85
2021/01/08 01:19:05;;;;;;;;;;;;;;;5.66;67.17;99682.53;4950652;28;20321;-84
2021/01/08 01:21:31;;;;;;;;;;;;;;;6.03;66.37;99686.44;4979832;28;19930;-84
2021/01/08 01:23:58;;;;;;;;;;;;;;;6.03;66.19;99679.53;4955403;28;19928;-84
2021/01/08 01:26:28;;;;;;;;;;;;;;;6.09;65.63;99683.94;4970854;28;20008;-84
2021/01/08 01:28:57;;;;;;;;;;;;;;;6.32;65.18;99684.16;4985613;28;20012;-83
2021/01/08 01:31:23;;;;;;;;;;;;;;;6.47;64.60;99684.28;4981138;28;20005;-84
2021/01/08 01:33:52;;;;;;;;;;;;;;;6.69;63.59;99678.41;4968261;28;19921;-83
2021/01/08 01:36:19;;;;;;;;;;;;;;;6.85;63.45;99682.88;4981188;28;19929;-83
2021/01/08 01:38:45;;;;;;;;;;;;;;;6.61;63.78;99680.09;4953112;28;20296;-84
2021/01/08 01:41:11;;;;;;;;;;;;;;;6.51;64.44;99686.94;4967337;28;20330;-82
2021/01/08 01:43:38;;;;;;;;;;;;;;;6.85;62.97;99682.00;4981673;28;19929;-83
2021/01/08 01:46:04;;;;;;;;;;;;;;;6.48;64.31;99692.06;4988999;28;19961;-83
2021/01/08 01:48:34;;;;;;;;;;;;;;;6.67;63.56;99689.63;4973786;28;19933;-82
2021/01/08 01:51:00;;;;;;;;;;;;;;;6.34;65.14;99687.59;4984716;28;19929;-82
2021/01/08 01:53:27;;;;;;;;;;;;;;;6.23;65.63;99694.44;4980362;28;20240;-83
2021/01/08 01:55:54;;;;;;;;;;;;;;;6.25;65.42;99685.81;4987041;28;20300;-82
2021/01/08 01:58:21;;;;;;;;;;;;;;;6.64;64.14;99687.00;4980383;28;20360;-83
2021/01/08 02:00:48;;;;;;;;;;;;;;;6.25;65.26;99696.19;4984472;28;19953;-83
2021/01/08 02:03:18;;;;;;;;;;;;;;;6.45;64.59;99683.41;4955259;28;19936;-82
2021/01/08 02:05:46;;;;;;;;;;;;;;;6.29;65.13;99686.69;4967384;28;19976;-83
2021/01/08 02:08:21;;;;;;;;;;;;;;;6.55;64.48;99680.91;4958913;28;20250;-82
2021/01/08 02:10:53;;;;;;;;;;;;;;;5.86;65.80;99678.44;4986518;28;20020;-84
2021/01/08 02:13:25;;;;;;;;;;;;;;;5.96;65.97;99679.44;4967953;28;19932;-84
2021/01/08 02:15:53;;;;;;;;;;;;;;;6.20;65.37;99684.00;4970741;28;19947;-83
2021/01/08 02:18:20;;;;;;;;;;;;;;;6.43;64.96;99683.38;4967359;28;20308;-84
2021/01/08 02:20:46;;;;;;;;;;;;;;;6.35;65.05;99689.34;4965957;28;19926;-83
2021/01/08 02:23:18;;;;;;;;;;;;;;;6.22;65.61;99683.19;4967554;28;20419;-84
2021/01/08 02:25:44;;;;;;;;;;;;;;;6.13;65.82;99681.38;4967508;28;20063;-84
2021/01/08 02:28:14;;;;;;;;;;;;;;;6.36;65.21;99684.19;4956062;28;20436;-84
2021/01/08 02:30:41;;;;;;;;;;;;;;;6.71;64.28;99678.44;4978302;28;20455;-84
2021/01/08 02:33:08;;;;;;;;;;;;;;;6.17;66.15;99684.00;4952902;28;20051;-84
2021/01/08 02:35:35;;;;;;;;;;;;;;;6.03;65.90;99678.69;4966185;28;19926;-84
2021/01/08 02:38:01;;;;;;;;;;;;;;;6.39;64.96;99688.53;4962748;28;20064;-84
2021/01/08 02:40:28;;;;;;;;;;;;;;;6.09;66.12;99684.78;4985304;28;19945;-83
2021/01/08 02:42:58;;;;;;;;;;;;;;;6.45;64.93;99680.81;4975386;28;19928;-84
2021/01/08 02:45:26;;;;;;;;;;;;;;;6.22;66.02;99687.50;4982910;28;19929;-84
2021/01/08 02:47:52;;;;;;;;;;;;;;;5.45;68.02;99682.28;4978307;28;20418;-83
2021/01/08 02:50:19;;;;;;;;;;;;;;;6.19;66.13;99685.72;4972972;28;19922;-84
2021/01/08 02:52:47;;;;;;;;;;;;;;;6.54;64.98;99684.34;4972166;28;19930;-84
2021/01/08 02:55:16;;;;;;;;;;;;;;;6.74;64.25;99684.50;4985242;28;19948;-84
2021/01/08 02:57:43;;;;;;;;;;;;;;;6.26;66.02;99684.09;4968341;28;20405;-84
2021/01/08 03:00:10;;;;;;;;;;;;;;;6.22;66.28;99690.09;4984190;28;20413;-83
2021/01/08 03:02:36;;;;;;;;;;;;;;;6.26;66.39;99689.28;4974637;28;20013;-84
2021/01/08 03:05:03;;;;;;;;;;;;;;;6.31;65.56;99692.78;4985779;28;19922;-83
2021/01/08 03:07:31;;;;;;;;;;;;;;;6.34;66.21;99696.25;4971301;28;20001;-84
2021/01/08 03:09:58;;;;;;;;;;;;;;;6.02;66.99;99693.34;4977059;28;20028;-84
2021/01/08 03:12:29;;;;;;;;;;;;;;;6.16;66.51;99695.22;4965501;28;20103;-83
2021/01/08 03:14:56;;;;;;;;;;;;;;;5.91;67.06;99697.53;4961846;28;19953;-81
2021/01/08 03:17:22;;;;;;;;;;;;;;;5.97;66.53;99686.38;4955811;28;20348;-84
2021/01/08 03:19:49;;;;;;;;;;;;;;;6.52;65.13;99693.00;4990272;28;19929;-85
2021/01/08 03:22:15;;;;;;;;;;;;;;;6.48;65.48;99689.47;4983909;28;20101;-84
2021/01/08 03:24:42;;;;;;;;;;;;;;;5.82;67.33;99691.34;4988344;28;19938;-83
2021/01/08 03:27:09;;;;;;;;;;;;;;;5.92;67.04;99686.34;4984710;28;20060;-84
2021/01/08 03:29:35;;;;;;;;;;;;;;;6.27;66.06;99693.63;4991955;28;21392;-84
2021/01/08 03:32:01;;;;;;;;;;;;;;;6.20;65.62;99689.19;4983826;28;20000;-84
2021/01/08 03:34:28;;;;;;;;;;;;;;;6.40;65.75;99690.28;4972760;28;20307;-83
2021/01/08 03:36:54;;;;;;;;;;;;;;;5.46;68.13;99687.50;4981567;28;20497;-83
2021/01/08 03:39:20;;;;;;;;;;;;;;;6.11;67.47;99687.38;4972963;28;20364;-84
2021/01/08 03:41:46;;;;;;;;;;;;;;;6.22;66.44;99696.16;4954525;28;19948;-84
2021/01/08 03:44:12;;;;;;;;;;;;;;;6.24;66.73;99688.38;4993693;28;20349;-84
2021/01/08 03:46:38;;;;;;;;;;;;;;;6.07;66.80;99696.00;4970458;28;19926;-84
2021/01/08 03:49:06;;;;;;;;;;;;;;;6.05;66.84;99688.19;4973498;28;19925;-84
2021/01/08 03:51:32;;;;;;;;;;;;;;;6.29;66.14;99691.88;4973391;28;19922;-84
2021/01/08 03:53:58;;;;;;;;;;;;;;;6.00;67.06;99687.28;4981882;28;19928;-84
2021/01/08 03:56:25;;;;;;;;;;;;;;;6.29;66.17;99691.88;4983258;28;19938;-84
2021/01/08 03:58:51;;;;;;;;;;;;;;;6.35;65.71;99687.63;4985908;28;19930;-84
2021/01/08 04:01:17;;;;;;;;;;;;;;;6.25;65.88;99688.41;4985603;28;19921;-84
2021/01/08 04:03:44;;;;;;;;;;;;;;;6.00;66.89;99692.47;4969512;28;20321;-84
2021/01/08 04:06:10;;;;;;;;;;;;;;;6.44;65.38;99694.63;4968218;28;19928;-84
2021/01/08 04:08:36;;;;;;;;;;;;;;;6.26;65.69;99684.09;4977255;28;20323;-84
2021/01/08 04:11:02;;;;;;;;;;;;;;;6.05;66.22;99688.19;4986822;28;19951;-84
2021/01/08 04:13:28;;;;;;;;;;;;;;;6.22;65.80;99690.97;4985207;28;20291;-84
2021/01/08 04:15:55;;;;;;;;;;;;;;;6.06;66.35;99689.06;4986104;28;20360;-83
2021/01/08 04:18:21;;;;;;;;;;;;;;;6.17;65.85;99695.25;4978999;28;20021;-83
2021/01/08 04:20:48;;;;;;;;;;;;;;;6.20;65.83;99699.56;4967249;28;20285;-83
2021/01/08 04:23:14;;;;;;;;;;;;;;;6.18;65.91;99694.41;4967302;28;20385;-84
2021/01/08 04:25:40;;;;;;;;;;;;;;;6.51;64.60;99689.53;4970947;28;20031;-84
2021/01/08 04:28:07;;;;;;;;;;;;;;;5.94;66.24;99691.53;4987931;28;19930;-84
2021/01/08 04:30:33;;;;;;;;;;;;;;;6.08;66.06;99692.56;4980169;28;19991;-84
2021/01/08 04:32:59;;;;;;;;;;;;;;;5.45;67.70;99690.06;4989901;28;19929;-84
2021/01/08 04:35:26;;;;;;;;;;;;;;;6.04;65.64;99701.16;4984093;28;20638;-84
2021/01/08 04:37:52;;;;;;;;;;;;;;;5.82;66.84;99697.41;4986019;28;19922;-84
2021/01/08 04:40:19;;;;;;;;;;;;;;;5.96;66.43;99698.47;4977091;28;19972;-83
2021/01/08 04:42:45;;;;;;;;;;;;;;;5.90;66.61;99702.75;4970291;28;19922;-83
2021/01/08 04:45:12;;;;;;;;;;;;;;;5.91;66.10;99694.09;4981490;28;20044;-83
2021/01/08 04:47:38;;;;;;;;;;;;;;;6.21;65.10;99691.81;4982870;28;19930;-84
2021/01/08 04:50:05;;;;;;;;;;;;;;;5.62;66.92;99696.28;4986702;28;20409;-82
2021/01/08 04:52:32;;;;;;;;;;;;;;;6.03;65.64;99689.91;4969231;28;20112;-82
2021/01/08 04:55:02;;;;;;;;;;;;;;;6.29;64.41;99689.28;4975562;28;19996;-83
2021/01/08 04:57:31;;;;;;;;;;;;;;;6.00;65.55;99691.59;4982529;28;19956;-84
2021/01/08 04:59:59;;;;;;;;;;;;;;;5.72;66.14;99699.03;4986166;28;20343;-82
2021/01/08 05:02:25;;;;;;;;;;;;;;;6.30;64.66;99691.03;4953212;28;19953;-84
2021/01/08 05:04:52;;;;;;;;;;;;;;;6.03;64.85;99689.03;4980783;28;20020;-81
2021/01/08 05:07:19;;;;;;;;;;;;;;;5.65;66.13;99691.19;4982468;28;20016;-85
2021/01/08 05:09:45;;;;;;;;;;;;;;;5.42;67.27;99683.09;4983806;28;19929;-82
2021/01/08 05:12:12;;;;;;;;;;;;;;;5.93;65.39;99689.81;4972730;28;19926;-83
2021/01/08 05:14:40;;;;;;;;;;;;;;;5.60;66.20;99679.88;4970112;28;19921;-82
2021/01/08 05:17:07;;;;;;;;;;;;;;;5.92;65.38;99686.34;4980965;28;19968;-83
2021/01/08 05:19:33;;;;;;;;;;;;;;;5.46;66.88;99686.63;4974754;28;19929;-82
2021/01/08 05:22:00;;;;;;;;;;;;;;;6.09;64.99;99692.56;4969952;28;19922;-84
2021/01/08 05:24:28;;;;;;;;;;;;;;;6.04;65.20;99688.19;4982514;28;19935;-82
2021/01/08 05:26:55;;;;;;;;;;;;;;;5.93;65.63;99692.38;4980231;28;19951;-82
2021/01/08 05:29:27;;;;;;;;;;;;;;;5.42;66.59;99682.25;4985273;28;19928;-83
2021/01/08 05:31:53;;;;;;;;;;;;;;;5.63;65.95;99690.28;4981804;28;20387;-83
2021/01/08 05:34:25;;;;;;;;;;;;;;;6.05;65.05;99693.38;4981419;28;19986;-83
2021/01/08 05:36:52;;;;;;;;;;;;;;;6.04;64.94;99691.63;4970673;28;20007;-84
2021/01/08 05:39:20;;;;;;;;;;;;;;;6.08;65.21;99695.16;4948284;28;19957;-83
2021/01/08 05:41:46;;;;;;;;;;;;;;;5.69;65.99;99685.16;4978979;28;19932;-83
2021/01/08 05:44:14;;;;;;;;;;;;;;;6.05;65.60;99693.38;4955320;28;19960;-83
2021/01/08 05:46:40;;;;;;;;;;;;;;;5.90;65.87;99695.81;4980140;28;20241;-83
2021/01/08 05:49:08;;;;;;;;;;;;;;;5.50;67.37;99698.75;4986589;28;19922;-84
2021/01/08 05:51:39;;;;;;;;;;;;;;;6.01;65.67;99699.41;4977368;28;20043;-83
2021/01/08 05:54:05;;;;;;;;;;;;;;;5.99;65.89;99695.06;4984153;28;20294;-83
2021/01/08 05:56:33;;;;;;;;;;;;;;;5.91;66.17;99700.13;4978571;28;20265;-84
2021/01/08 05:59:01;;;;;;;;;;;;;;;5.98;65.56;99698.50;4982467;28;20431;-84
2021/01/08 06:01:28;;;;;;;;;;;;;;;5.49;67.59;99695.28;4981551;28;20288;-84
2021/01/08 06:03:54;;;;;;;;;;;;;;;5.63;66.92;99703.22;4966793;28;20400;-85
2021/01/08 06:06:23;;;;;;;;;;;;;;;5.90;66.64;99707.94;4982574;28;20028;-84
2021/01/08 06:08:50;;;;;;;;;;;;;;;6.05;65.53;99703.75;4983296;28;19945;-84
2021/01/08 06:11:18;;;;;;;;;;;;;;;6.17;65.40;99705.63;4985534;28;19925;-84
2021/01/08 06:13:45;;;;;;;;;;;;;;;5.99;66.04;99710.63;4970190;28;19922;-84
2021/01/08 06:16:16;;;;;;;;;;;;;;;5.86;65.92;99701.78;4957181;28;19932;-84
2021/01/08 06:18:43;;;;;;;;;;;;;;;5.80;67.22;99701.72;4982300;28;20352;-84
2021/01/08 06:21:12;;;;;;;;;;;;;;;5.61;67.79;99698.00;4990034;28;19928;-84
2021/01/08 06:23:42;;;;;;;;;;;;;;;5.60;67.44;99695.44;4968753;28;19973;-84
2021/01/08 06:26:16;;;;;;;;;;;;;;;5.87;66.45;99698.38;4987396;28;19928;-84
2021/01/08 06:28:44;;;;;;;;;;;;;;;5.81;66.85;99707.75;4985832;28;19926;-83
2021/01/08 06:31:13;;;;;;;;;;;;;;;6.00;66.37;99705.44;4987652;28;19922;-83
2021/01/08 06:33:39;;;;;;;;;;;;;;;5.33;68.51;99708.88;4984630;28;20296;-84
2021/01/08 06:36:26;;;;;;;;;;;;;;;5.40;68.35;99702.06;4975638;28;19941;-84
2021/01/08 06:38:54;;;;;;;;;;;;;;;5.79;66.91;99709.47;4972378;28;20219;-83
2021/01/08 06:41:20;;;;;;;;;;;;;;;5.47;68.68;99707.34;4970223;28;20238;-84
2021/01/08 06:43:49;;;;;;;;;;;;;;;5.38;69.27;99716.72;4981543;28;20008;-84
2021/01/08 06:46:29;;;;;;;;;;;;;;;5.75;68.06;99716.34;4986598;28;20021;-84
2021/01/08 06:48:56;;;;;;;;;;;;;;;5.28;68.56;99720.88;4989124;28;19932;-84
2021/01/08 06:51:26;;;;;;;;;;;;;;;5.77;68.06;99725.00;4971565;28;19964;-83
2021/01/08 06:53:55;;;;;;;;;;;;;;;5.86;67.43;99729.41;4973048;28;19941;-83
2021/01/08 06:56:41;;;;;;;;;;;;;;;5.27;68.69;99729.53;4987798;28;19925;-84
2021/01/08 06:59:11;;;;;;;;;;;;;;;5.48;67.70;99727.22;4974987;28;20380;-82
2021/01/08 07:01:56;;;;;;;;;;;;;;;5.92;67.30;99726.94;4985778;28;19928;-84
2021/01/08 07:04:32;;;;;;;;;;;;;;;5.78;67.71;99729.34;4963566;28;20016;-82
2021/01/08 07:07:02;;;;;;;;;;;;;;;6.02;66.42;99724.47;4982118;28;19966;-83
2021/01/08 07:09:34;;;;;;;;;;;;;;;6.36;65.32;99730.03;4980144;28;19922;-83
2021/01/08 07:12:02;;;;;;;;;;;;;;;6.34;65.74;99734.31;4971344;28;20037;-84
2021/01/08 07:14:28;;;;;;;;;;;;;;;6.18;65.96;99740.22;4961584;28;19977;-85
2021/01/08 07:16:56;;;;;;;;;;;;;;;6.14;66.04;99731.50;4969526;28;19922;-84
2021/01/08 07:19:29;;;;;;;;;;;;;;;6.20;66.04;99739.34;4966519;28;19929;-83
2021/01/08 07:21:56;;;;;;;;;;;;;;;5.50;67.92;99738.50;4984829;28;19940;-84
2021/01/08 07:24:24;;;;;;;;;;;;;;;5.92;66.64;99735.59;4987029;28;19945;-82
2021/01/08 07:26:51;;;;;;;;;;;;;;;6.22;65.81;99734.19;4979408;28;19949;-84
2021/01/08 07:29:27;;;;;;;;;;;;;;;5.56;67.81;99745.47;4975901;28;19929;-84
2021/01/08 07:31:57;;;;;;;;;;;;;;;5.91;66.91;99736.44;4987120;28;20024;-84
2021/01/08 07:34:33;;;;;;;;;;;;;;;5.82;67.88;99743.19;4989114;28;19984;-84
2021/01/08 07:37:00;;;;;;;;;;;;;;;6.15;66.94;99748.81;4986607;28;19945;-83
2021/01/08 07:39:41;;;;;;;;;;;;;;;6.21;65.98;99751.47;4958352;28;19929;-85
2021/01/08 07:42:27;;;;;;;;;;;;;;;5.99;66.94;99760.75;4985915;28;19951;-85
2021/01/08 07:44:53;;;;;;;;;;;;;;;5.69;68.59;99756.03;4976915;28;19928;-83
2021/01/08 07:47:26;;;;;;;;;;;;;;;6.25;66.31;99762.75;4970868;28;19922;-84
2021/01/08 07:50:06;;;;;;;;;;;;;;;5.97;66.69;99767.63;4990080;28;19921;-84
2021/01/08 07:52:40;;;;;;;;;;;;;;;6.64;65.12;99768.34;4981218;28;19922;-84
2021/01/08 07:55:08;;;;;;;;;;;;;;;6.30;66.12;99774.06;4979535;28;19922;-84
2021/01/08 07:58:13;;;;;;;;;;;;;;;6.11;66.17;99772.97;4969762;28;20399;-84
2021/01/08 08:00:39;;;;;;;;;;;;;;;6.73;64.81;99771.03;4916370;28;19932;-83
2021/01/08 08:03:06;;;;;;;;;;;;;;;6.64;65.10;99776.16;4946495;28;20101;-85
2021/01/08 08:05:32;;;;;;;;;;;;;;;6.28;66.02;99784.44;4936271;28;19930;-84
2021/01/08 08:08:02;;;;;;;;;;;;;;;6.23;66.41;99785.22;4983638;28;19997;-85
2021/01/08 08:10:29;;;;;;;;;;;;;;;6.35;65.56;99791.41;4991208;28;19948;-84
2021/01/08 08:12:56;;;;;;;;;;;;;;;6.40;65.68;99791.47;4984895;28;20175;-84
2021/01/08 08:15:22;;;;;;;;;;;;;;;6.64;64.97;99801.22;4968874;28;19928;-83
2021/01/08 08:17:49;;;;;;;;;;;;;;;6.61;64.71;99809.88;4976120;28;19930;-83
2021/01/08 08:20:20;;;;;;;;;;;;;;;6.17;66.54;99806.78;4966584;28;19928;-85
2021/01/08 08:22:47;;;;;;;;;;;;;;;6.09;66.66;99805.81;4985312;28;19989;-82
2021/01/08 08:25:26;;;;;;;;;;;;;;;6.54;65.59;99816.72;4962739;28;20472;-83
2021/01/08 08:27:53;;;;;;;;;;;;;;;6.25;66.45;99825.00;4989911;28;19929;-82
2021/01/08 08:30:20;;;;;;;;;;;;;;;6.33;66.73;99820.81;4993845;28;19933;-83
2021/01/08 08:32:47;;;;;;;;;;;;;;;6.13;66.73;99821.44;4970976;28;19926;-82
2021/01/08 08:35:15;;;;;;;;;;;;;;;6.27;66.66;99831.09;4981957;28;19921;-82
2021/01/08 08:37:46;;;;;;;;;;;;;;;6.13;67.09;99829.22;4952926;28;19976;-83
2021/01/08 08:40:13;;;;;;;;;;;;;;;5.48;69.32;99838.63;4974054;28;19934;-83
2021/01/08 08:42:40;;;;;;;;;;;;;;;5.87;68.81;99845.28;4972502;28;19921;-82
2021/01/08 08:45:26;;;;;;;;;;;;;;;5.84;68.10;99847.81;4958803;28;19962;-84
2021/01/08 08:47:54;;;;;;;;;;;;;;;6.43;66.04;99848.56;4988106;28;19953;-81
2021/01/08 08:50:21;;;;;;;;;;;;;;;6.36;66.37;99858.03;4956565;28;19949;-83
2021/01/08 08:52:48;;;;;;;;;;;;;;;5.50;68.38;99857.69;4990133;28;19921;-82
2021/01/08 08:55:32;;;;;;;;;;;;;;;6.20;66.85;99855.22;4968405;28;21400;-81
2021/01/08 08:57:59;;;;;;;;;;;;;;;5.85;67.53;99867.69;4981960;28;19922;-77
2021/01/08 09:00:27;;;;;;;;;;;;;;;5.71;67.77;99868.34;4991473;28;20304;-79
2021/01/08 09:02:54;;;;;;;;;;;;;;;5.72;68.07;99869.22;4970719;28;19921;-80
2021/01/08 09:05:20;;;;;;;;;;;;;;;5.81;68.35;99878.84;4989557;28;19971;-81
2021/01/08 09:07:54;;;;;;;;;;;;;;;6.22;66.96;99882.06;4988674;28;19925;-84
2021/01/08 09:10:29;;;;;;;;;;;;;;;5.11;68.88;99886.38;4984685;28;20341;-80
2021/01/08 09:13:00;;;;;;;;;;;;;;;5.54;69.18;99881.91;4988194;28;20364;-83
2021/01/08 09:15:28;;;;;;;;;;;;;;;5.07;70.38;99879.41;4957823;28;20240;-82
2021/01/08 09:18:07;;;;;;;;;;;;;;;5.58;68.54;99881.09;4975164;28;19926;-82
2021/01/08 09:21:12;;;;;;;;;;;;;;;5.50;69.00;99887.91;4986009;28;19922;-79
2021/01/08 09:23:42;;;;;;;;;;;;;;;5.31;69.45;99897.09;4985994;28;19921;-82
2021/01/08 09:26:10;;;;;;;;;;;;;;;5.91;68.14;99902.38;4954639;28;19921;-81
2021/01/08 09:28:40;;;;;;;;;;;;;;;5.53;68.46;99898.28;4952115;28;19930;-81
2021/01/08 09:31:07;;;;;;;;;;;;;;;5.78;68.46;99899.56;4970598;28;20413;-79
2021/01/08 09:33:35;;;;;;;;;;;;;;;5.50;68.87;99914.69;4981753;28;20288;-80
2021/01/08 09:36:05;;;;;;;;;;;;;;;5.52;68.31;99910.38;4981092;28;19930;-80
2021/01/08 09:38:36;;;;;;;;;;;;;;;5.45;69.47;99912.84;4984910;28;19922;-80
2021/01/08 09:41:26;;;;;;;;;;;;;;;5.32;70.24;99911.78;4956318;28;19921;-82
2021/01/08 09:44:00;;;;;;;;;;;;;;;5.43;69.98;99924.91;4970955;28;19921;-81
2021/01/08 09:46:27;;;;;;;;;;;;;;;5.25;70.38;99928.94;4967310;28;20299;-79
2021/01/08 09:49:04;;;;;;;;;;;;;;;5.22;70.98;99922.84;4971767;28;19928;-77
2021/01/08 09:51:31;;;;;;;;;;;;;;;4.38;73.68;99923.81;4980525;28;19922;-82
2021/01/08 09:53:57;;;;;;;;;;;;;;;4.81;71.79;99930.69;4985795;28;19922;-80
2021/01/08 09:56:24;;;;;;;;;;;;;;;4.81;72.35;99924.66;4968456;28;19922;-84
2021/01/08 09:59:09;;;;;;;;;;;;;;;5.19;71.44;99934.00;4990097;28;19922;-82
2021/01/08 10:01:54;;;;;;;;;;;;;;;4.95;71.89;99933.53;4984478;28;19922;-81
2021/01/08 10:04:46;;;;;;;;;;;;;;;4.90;71.67;99935.19;4958311;28;20001;-81
2021/01/08 10:07:13;;;;;;;;;;;;;;;4.24;73.11;99942.44;4978300;28;20064;-84
2021/01/08 10:09:52;;;;;;;;;;;;;;;5.37;71.06;99940.38;4952564;28;19922;-82
2021/01/08 10:12:20;;;;;;;;;;;;;;;5.13;71.08;99953.75;4954123;28;20107;-80
2021/01/08 10:14:47;;;;;;;;;;;;;;;5.03;70.79;99950.13;4951276;28;19926;-82
2021/01/08 10:17:16;;;;;;;;;;;;;;;5.58;70.23;99957.13;4953660;28;20411;-82
2021/01/08 10:19:46;;;;;;;;;;;;;;;5.59;69.83;99952.81;4985786;28;20402;-79
2021/01/08 10:22:18;;;;;;;;;;;;;;;6.42;67.74;99954.13;4950133;28;19930;-81
2021/01/08 10:24:44;;;;;;;;;;;;;;;6.07;68.33;99970.91;4968560;28;19961;-79
2021/01/08 10:27:10;;;;;;;;;;;;;;;6.10;68.23;99961.44;4984254;28;19934;-80
2021/01/08 10:29:41;;;;;;;;;;;;;;;5.83;68.85;99971.38;4968191;28;20342;-87
2021/01/08 10:32:09;;;;;;;;;;;;;;;5.22;70.20;99959.09;4977216;28;19971;-80
2021/01/08 10:34:36;;;;;;;;;;;;;;;5.88;68.86;99980.13;4980486;28;19929;-81
2021/01/08 10:37:03;;;;;;;;;;;;;;;5.47;70.42;99973.31;4985371;28;19932;-83
2021/01/08 10:39:29;;;;;;;;;;;;;;;5.81;69.43;99973.03;4965787;28;20297;-82
2021/01/08 10:41:56;;;;;;;;;;;;;;;5.33;70.72;99977.41;4966480;28;20332;-83
2021/01/08 10:44:28;;;;;;;;;;;;;;;6.27;67.40;99973.78;4978199;28;20401;-82
2021/01/08 10:46:54;;;;;;;;;;;;;;;5.15;70.20;99980.53;4987012;28;19922;-81
2021/01/08 10:49:23;;;;;;;;;;;;;;;5.62;69.59;99987.44;4969310;28;19925;-81
2021/01/08 10:51:52;;;;;;;;;;;;;;;6.12;68.31;99979.63;4983782;28;20024;-80
2021/01/08 10:54:20;;;;;;;;;;;;;;;5.84;69.52;100001.63;4984176;28;19968;-79
2021/01/08 10:56:46;;;;;;;;;;;;;;;5.43;69.56;99993.13;4976052;28;19929;-78
2021/01/08 10:59:13;;;;;;;;;;;;;;;5.52;70.45;99992.41;4982926;28;19980;-80
2021/01/08 11:01:40;;;;;;;;;;;;;;;5.75;69.54;99996.31;4952663;28;19936;-81
2021/01/08 11:04:07;;;;;;;;;;;;;;;5.89;69.44;100006.94;4983657;28;19961;-78
2021/01/08 11:06:35;;;;;;;;;;;;;;;5.87;69.54;99999.13;4984168;28;19977;-79
2021/01/08 11:09:02;;;;;;;;;;;;;;;5.54;69.03;99998.50;4974393;28;20311;-78
2021/01/08 11:11:29;;;;;;;;;;;;;;;5.48;69.89;99996.69;4968252;28;20267;-82
2021/01/08 11:13:55;;;;;;;;;;;;;;;6.49;67.28;100002.66;4969972;28;19992;-82
2021/01/08 11:16:21;;;;;;;;;;;;;;;6.41;67.66;100003.41;4983497;28;20427;-78
2021/01/08 11:18:48;;;;;;;;;;;;;;;6.64;66.93;100007.19;4949037;28;19981;-79
2021/01/08 11:21:21;;;;;;;;;;;;;;;5.86;68.46;100009.41;4948183;28;19921;-80
2021/01/08 11:23:49;;;;;;;;;;;;;;;5.87;68.59;100011.19;4984836;28;20017;-80
2021/01/08 11:26:25;;;;;;;;;;;;;;;5.47;69.99;100007.00;4982172;28;19926;-78
2021/01/08 11:28:55;;;;;;;;;;;;;;;6.68;66.69;100008.06;4961043;28;20332;-80
2021/01/08 11:31:34;;;;;;;;;;;;;;;5.88;68.55;100015.56;4981084;28;19925;-79
2021/01/08 11:34:03;;;;;;;;;;;;;;;5.54;69.26;100003.69;4970118;28;19929;-80
2021/01/08 11:36:29;;;;;;;;;;;;;;;5.27;71.49;99998.91;4973534;28;20369;-80
2021/01/08 11:38:56;;;;;;;;;;;;;;;6.22;68.31;100010.03;4945976;28;20008;-83
2021/01/08 11:41:23;;;;;;;;;;;;;;;5.61;69.22;100014.19;4942799;28;20606;-85
2021/01/08 11:43:49;;;;;;;;;;;;;;;5.94;69.00;100002.69;4963980;28;19988;-83
2021/01/08 11:46:20;;;;;;;;;;;;;;;6.41;67.46;100004.28;4948671;28;20008;-81
2021/01/08 11:48:50;;;;;;;;;;;;;;;5.99;67.27;100001.91;4949680;28;20321;-81
2021/01/08 11:51:16;;;;;;;;;;;;;;;6.45;66.62;99997.41;4954492;28;19937;-83
2021/01/08 11:53:44;;;;;;;;;;;;;;;6.75;66.34;100004.72;4936960;28;20285;-80
2021/01/08 11:56:11;;;;;;;;;;;;;;;7.20;64.78;100002.66;4964585;28;19945;-80
2021/01/08 11:58:39;;;;;;;;;;;;;;;6.87;65.13;100005.75;4928790;28;19925;-79
2021/01/08 12:01:08;;;;;;;;;;;;;;;6.99;65.43;100005.03;4934907;28;19956;-81
2021/01/08 12:03:40;;;;;;;;;;;;;;;7.22;64.84;100010.47;4946008;28;20832;-79
2021/01/08 12:06:07;;;;;;;;;;;;;;;7.23;64.67;100007.03;4957791;28;19938;-79
2021/01/08 12:08:38;;;;;;;;;;;;;;;6.57;66.22;100005.34;4951949;28;19922;-78
2021/01/08 12:11:05;;;;;;;;;;;;;;;6.75;65.17;100010.78;4938258;28;19996;-78
2021/01/08 12:13:31;;;;;;;;;;;;;;;6.72;65.69;100002.94;4933330;28;19927;-82
2021/01/08 12:15:59;;;;;;;;;;;;;;;7.24;63.94;100012.22;4955626;28;20285;-85
2021/01/08 12:18:25;;;;;;;;;;;;;;;6.27;66.15;100017.91;4945633;28;19922;-80
2021/01/08 12:20:52;;;;;;;;;;;;;;;6.74;66.00;100016.84;4953710;28;19930;-80
2021/01/08 12:23:18;;;;;;;;;;;;;;;7.04;65.13;100020.66;4935756;28;19965;-80
2021/01/08 12:25:55;;;;;;;;;;;;;;;7.31;64.19;100013.19;4929529;28;19945;-81
2021/01/08 12:28:23;;;;;;;;;;;;;;;7.33;64.17;100016.69;4938033;28;19926;-82
2021/01/08 12:30:54;;;;;;;;;;;;;;;6.80;65.70;100019.50;4928783;28;19923;-84
2021/01/08 12:33:34;;;;;;;;;;;;;;;7.27;64.31;100019.19;4907846;28;20005;-82
2021/01/08 12:36:02;;;;;;;;;;;;;;;7.29;64.04;100026.13;4936725;28;19926;-83
2021/01/08 12:38:36;;;;;;;;;;;;;;;7.22;63.73;100016.56;4950883;28;19921;-90
2021/01/08 12:41:15;;;;;;;;;;;;;;;6.88;64.68;100014.41;4899869;28;19965;-80
2021/01/08 12:43:42;;;;;;;;;;;;;;;7.25;64.22;100013.09;4948541;28;19925;-86
2021/01/08 12:46:10;;;;;;;;;;;;;;;7.15;64.00;100017.31;4992649;28;20337;-80
2021/01/08 12:48:38;;;;;;;;;;;;;;;6.90;65.27;100013.59;4964756;28;19929;-82
2021/01/08 12:51:05;;;;;;;;;;;;;;;7.56;63.31;100015.19;4966245;28;19953;-84
2021/01/08 12:53:33;;;;;;;;;;;;;;;7.23;64.16;100017.44;4969050;28;19993;-80
2021/01/08 12:55:59;;;;;;;;;;;;;;;7.32;63.65;100021.00;4954709;28;19965;-82
2021/01/08 12:58:26;;;;;;;;;;;;;;;7.40;63.05;100018.47;4973511;28;19960;-79
2021/01/08 13:00:52;;;;;;;;;;;;;;;7.32;63.23;100026.19;4965285;28;20004;-82
2021/01/08 13:03:19;;;;;;;;;;;;;;;6.68;64.73;100024.53;4945573;28;20368;-80